Time,TemperatureF,DewpointF,PressureIn,WindDirection,WindDirectionDegrees,WindSpeedMPH,WindSpeedGustMPH,Humidity,HourlyPrecipIn,Conditions,Clouds,dailyrainin,SoftwareType,DateUTC
2013-07-02 00:03:00,59.8,56.2,29.86,West,261,0.0,2.0,88,0.00,,---,0.00,VWS V14.01,2013-07-02 07:03:00,
2013-07-02 00:08:00,59.8,56.2,29.87,West,261,0.0,0.0,88,0.00,,---,0.00,VWS V14.01,2013-07-02 07:08:00,
2013-07-02 00:13:00,59.8,56.2,29.87,West,261,0.0,0.0,88,0.00,,---,0.00,VWS V14.01,2013-07-02 07:13:00,
2013-07-02 00:18:00,59.6,55.7,29.87,West,261,0.0,0.0,87,0.00,,---,0.00,VWS V14.01,2013-07-02 07:18:00,
2013-07-02 00:23:00,59.6,55.7,29.86,West,261,0.0,0.0,87,0.00,,---,0.00,VWS V14.01,2013-07-02 07:23:00,
2013-07-02 00:28:00,59.5,55.6,29.86,SW,219,0.0,4.0,87,0.00,,---,0.00,VWS V14.01,2013-07-02 07:28:00,
2013-07-02 00:33:00,59.5,56.0,29.86,SW,219,0.0,4.0,88,0.00,,---,0.00,VWS V14.01,2013-07-02 07:33:00,
2013-07-02 00:38:00,59.5,56.0,29.86,SW,219,0.0,0.0,88,0.00,,---,0.00,VWS V14.01,2013-07-02 07:38:00,
2013-07-02 00:43:00,59.5,56.0,29.86,SW,219,0.0,0.0,88,0.00,,---,0.00,VWS V14.01,2013-07-02 07:43:00,
2013-07-02 00:48:00,59.5,55.6,29.86,SW,219,0.0,0.0,87,0.00,,---,0.00,VWS V14.01,2013-07-02 07:48:00,
2013-07-02 00:53:00,59.5,55.6,29.86,SW,219,0.0,0.0,87,0.00,,---,0.00,VWS V14.01,2013-07-02 07:53:00,
2013-07-02 00:58:00,59.5,55.6,29.86,SW,219,0.0,0.0,87,0.00,,---,0.00,VWS V14.01,2013-07-02 07:58:00,
2013-07-02 01:03:00,59.5,55.6,29.86,SW,219,0.0,0.0,87,0.00,,---,0.00,VWS V14.01,2013-07-02 08:03:00,
2013-07-02 01:08:00,59.6,55.7,29.85,SW,233,0.0,0.0,87,0.00,,---,0.00,VWS V14.01,2013-07-02 08:08:00,
2013-07-02 01:13:00,59.6,55.7,29.85,SW,233,0.0,0.0,87,0.00,,---,0.00,VWS V14.01,2013-07-02 08:13:00,
2013-07-02 01:18:00,59.6,55.7,29.85,SW,233,0.0,0.0,87,0.00,,---,0.00,VWS V14.01,2013-07-02 08:18:00,
2013-07-02 01:23:00,59.5,56.0,29.85,SW,233,0.0,0.0,88,0.00,,---,0.00,VWS V14.01,2013-07-02 08:23:00,
2013-07-02 01:28:00,59.3,55.8,29.85,SW,233,0.0,3.0,88,0.00,,---,0.00,VWS V14.01,2013-07-02 08:28:00,
2013-07-02 01:33:00,59.3,55.8,29.85,SW,233,0.0,3.0,88,0.00,,---,0.00,VWS V14.01,2013-07-02 08:33:00,
2013-07-02 01:38:00,59.3,55.8,29.86,SW,233,0.0,0.0,88,0.00,,---,0.00,VWS V14.01,2013-07-02 08:38:00,
2013-07-02 01:43:00,59.2,56.0,29.86,SW,233,0.0,0.0,89,0.00,,---,0.00,VWS V14.01,2013-07-02 08:43:00,
2013-07-02 01:48:00,59.0,55.8,29.86,SW,233,1.0,1.0,89,0.00,,---,0.00,VWS V14.01,2013-07-02 08:48:00,
2013-07-02 01:53:00,58.9,55.7,29.85,SW,233,0.0,1.0,89,0.00,,---,0.00,VWS V14.01,2013-07-02 08:53:00,
2013-07-02 01:58:00,58.9,56.0,29.85,SW,233,0.0,2.0,90,0.00,,---,0.00,VWS V14.01,2013-07-02 08:58:00,
2013-07-02 02:03:00,58.7,55.8,29.85,SW,233,0.0,3.0,90,0.00,,---,0.00,VWS V14.01,2013-07-02 09:03:00,
2013-07-02 02:08:00,58.7,55.8,29.85,SW,233,0.0,0.0,90,0.00,,---,0.00,VWS V14.01,2013-07-02 09:08:00,
2013-07-02 02:13:00,58.9,56.0,29.85,SW,233,0.0,0.0,90,0.00,,---,0.00,VWS V14.01,2013-07-02 09:13:00,
2013-07-02 02:18:00,58.9,56.0,29.85,SW,233,0.0,0.0,90,0.00,,---,0.00,VWS V14.01,2013-07-02 09:18:00,
2013-07-02 02:23:00,58.9,56.0,29.84,SW,233,0.0,0.0,90,0.00,,---,0.00,VWS V14.01,2013-07-02 09:23:00,
2013-07-02 02:28:00,58.9,56.0,29.84,SW,233,0.0,0.0,90,0.00,,---,0.00,VWS V14.01,2013-07-02 09:28:00,
2013-07-02 02:33:00,58.7,55.8,29.84,SW,233,0.0,3.0,90,0.00,,---,0.00,VWS V14.01,2013-07-02 09:33:00,
2013-07-02 02:38:00,58.6,56.0,29.83,SW,233,0.0,3.0,91,0.00,,---,0.00,VWS V14.01,2013-07-02 09:38:00,
2013-07-02 02:43:00,58.4,55.8,29.83,SW,233,0.0,3.0,91,0.00,,---,0.00,VWS V14.01,2013-07-02 09:43:00,
2013-07-02 02:48:00,58.4,55.8,29.83,SW,233,0.0,3.0,91,0.00,,---,0.00,VWS V14.01,2013-07-02 09:48:00,
2013-07-02 02:53:00,58.3,55.7,29.83,SW,233,0.0,3.0,91,0.00,,---,0.00,VWS V14.01,2013-07-02 09:53:00,
2013-07-02 02:58:00,58.1,55.5,29.83,SW,233,0.0,3.0,91,0.00,,---,0.00,VWS V14.01,2013-07-02 09:58:00,
2013-07-02 03:03:00,58.1,55.8,29.83,SW,233,0.0,3.0,92,0.00,,---,0.00,VWS V14.01,2013-07-02 10:03:00,
2013-07-02 03:08:00,58.0,55.7,29.83,SW,233,0.0,1.0,92,0.00,,---,0.00,VWS V14.01,2013-07-02 10:08:00,
2013-07-02 03:13:00,58.0,55.7,29.83,SW,233,0.0,1.0,92,0.00,,---,0.00,VWS V14.01,2013-07-02 10:13:00,
2013-07-02 03:18:00,57.8,55.5,29.83,SW,233,0.0,1.0,92,0.00,,---,0.00,VWS V14.01,2013-07-02 10:18:00,
2013-07-02 03:23:00,57.8,55.5,29.83,SW,233,0.0,1.0,92,0.00,,---,0.00,VWS V14.01,2013-07-02 10:23:00,
2013-07-02 03:28:00,57.5,55.2,29.83,SW,233,0.0,1.0,92,0.00,,---,0.00,VWS V14.01,2013-07-02 10:28:00,
2013-07-02 03:33:00,57.5,55.2,29.83,SW,233,0.0,1.0,92,0.00,,---,0.00,VWS V14.01,2013-07-02 10:33:00,
2013-07-02 03:38:00,57.3,55.0,29.83,SW,233,0.0,0.0,92,0.00,,---,0.00,VWS V14.01,2013-07-02 10:38:00,
2013-07-02 03:43:00,57.2,54.9,29.83,SW,233,0.0,0.0,92,0.00,,---,0.00,VWS V14.01,2013-07-02 10:43:00,
2013-07-02 03:48:00,57.2,54.9,29.83,SW,233,0.0,0.0,92,0.00,,---,0.00,VWS V14.01,2013-07-02 10:48:00,
2013-07-02 03:53:00,57.2,54.9,29.84,SW,233,0.0,0.0,92,0.00,,---,0.00,VWS V14.01,2013-07-02 10:53:00,
2013-07-02 03:58:00,57.2,54.9,29.84,SW,233,0.0,0.0,92,0.00,,---,0.00,VWS V14.01,2013-07-02 10:58:00,
2013-07-02 04:03:00,57.2,55.2,29.84,SW,233,0.0,0.0,93,0.00,,---,0.00,VWS V14.01,2013-07-02 11:03:00,
2013-07-02 04:08:00,57.3,55.3,29.83,SW,233,0.0,0.0,93,0.00,,---,0.00,VWS V14.01,2013-07-02 11:08:00,
2013-07-02 04:13:00,57.3,55.3,29.83,SW,233,0.0,0.0,93,0.00,,---,0.00,VWS V14.01,2013-07-02 11:13:00,
2013-07-02 04:18:00,57.3,55.3,29.83,SW,233,0.0,0.0,93,0.00,,---,0.00,VWS V14.01,2013-07-02 11:18:00,
2013-07-02 04:23:00,57.3,55.3,29.83,SW,233,0.0,0.0,93,0.00,,---,0.00,VWS V14.01,2013-07-02 11:23:00,
2013-07-02 04:28:00,57.3,55.3,29.83,SW,233,0.0,0.0,93,0.00,,---,0.00,VWS V14.01,2013-07-02 11:28:00,
2013-07-02 04:33:00,57.3,55.3,29.83,SW,233,0.0,0.0,93,0.00,,---,0.00,VWS V14.01,2013-07-02 11:33:00,
2013-07-02 04:38:00,57.3,55.3,29.84,SW,233,0.0,0.0,93,0.00,,---,0.00,VWS V14.01,2013-07-02 11:38:00,
2013-07-02 04:43:00,57.5,55.5,29.84,SW,233,0.0,1.0,93,0.00,,---,0.00,VWS V14.01,2013-07-02 11:43:00,
2013-07-02 04:48:00,57.5,55.5,29.84,SW,233,0.0,1.0,93,0.00,,---,0.00,VWS V14.01,2013-07-02 11:48:00,
2013-07-02 04:53:00,57.5,55.5,29.84,SW,233,0.0,1.0,93,0.00,,---,0.00,VWS V14.01,2013-07-02 11:53:00,
2013-07-02 04:58:00,57.5,55.5,29.84,SW,233,0.0,1.0,93,0.00,,---,0.00,VWS V14.01,2013-07-02 11:58:00,
2013-07-02 05:03:00,57.6,55.6,29.84,SW,233,0.0,1.0,93,0.00,,---,0.00,VWS V14.01,2013-07-02 12:03:00,
2013-07-02 05:08:00,57.6,56.0,29.84,SW,233,0.0,-999.0,93,-99.99,,,0.00,weatherlink.com 1.10,2013-07-02 12:08:00,
2013-07-02 05:13:00,57.6,55.6,29.84,SW,233,1.0,2.0,93,0.00,,---,0.00,VWS V14.01,2013-07-02 12:13:00,
2013-07-02 05:18:00,57.5,55.5,29.84,WSW,238,1.0,3.0,93,0.00,,---,0.00,VWS V14.01,2013-07-02 12:18:00,
2013-07-02 05:23:00,57.5,55.5,29.84,WSW,238,0.0,3.0,93,0.00,,---,0.00,VWS V14.01,2013-07-02 12:23:00,
2013-07-02 05:28:00,57.3,55.3,29.84,WSW,237,0.0,3.0,93,0.00,,---,0.00,VWS V14.01,2013-07-02 12:28:00,
2013-07-02 05:33:00,57.3,55.3,29.84,WSW,244,0.0,3.0,93,0.00,,---,0.00,VWS V14.01,2013-07-02 12:33:00,
2013-07-02 05:38:00,57.2,55.5,29.85,WSW,244,3.0,3.0,94,0.00,,---,0.00,VWS V14.01,2013-07-02 12:38:00,
2013-07-02 05:43:00,57.2,55.5,29.85,WSW,246,0.0,4.0,94,0.00,,---,0.00,VWS V14.01,2013-07-02 12:43:00,
2013-07-02 05:48:00,57.2,55.5,29.85,WSW,246,0.0,4.0,94,0.00,,---,0.00,VWS V14.01,2013-07-02 12:48:00,
2013-07-02 05:53:00,57.2,55.5,29.85,WSW,246,0.0,4.0,94,0.00,,---,0.00,VWS V14.01,2013-07-02 12:53:00,
2013-07-02 05:58:00,57.0,55.3,29.85,WSW,246,0.0,4.0,94,0.00,,---,0.00,VWS V14.01,2013-07-02 12:58:00,
2013-07-02 06:03:00,57.0,55.6,29.84,WSW,246,1.0,4.0,95,0.00,,---,0.00,VWS V14.01,2013-07-02 13:03:00,
2013-07-02 06:08:00,56.9,55.5,29.84,WSW,246,0.0,0.0,95,0.00,,---,0.00,VWS V14.01,2013-07-02 13:08:00,
2013-07-02 06:13:00,56.9,55.5,29.84,WSW,246,0.0,0.0,95,0.00,,---,0.00,VWS V14.01,2013-07-02 13:13:00,
2013-07-02 06:18:00,56.9,55.5,29.84,WSW,246,0.0,0.0,95,0.00,,---,0.00,VWS V14.01,2013-07-02 13:18:00,
2013-07-02 06:23:00,56.7,55.3,29.84,WSW,246,0.0,0.0,95,0.00,,---,0.00,VWS V14.01,2013-07-02 13:23:00,
2013-07-02 06:28:00,56.7,55.3,29.84,WSW,246,0.0,0.0,95,0.00,,---,0.00,VWS V14.01,2013-07-02 13:28:00,
2013-07-02 06:33:00,56.9,55.5,29.84,WSW,246,0.0,0.0,95,0.00,,---,0.00,VWS V14.01,2013-07-02 13:33:00,
2013-07-02 06:38:00,56.9,55.5,29.84,WSW,246,0.0,0.0,95,0.00,,---,0.00,VWS V14.01,2013-07-02 13:38:00,
2013-07-02 06:43:00,56.9,55.8,29.84,WSW,246,0.0,0.0,96,0.00,,---,0.00,VWS V14.01,2013-07-02 13:43:00,
2013-07-02 06:48:00,56.9,55.8,29.84,WSW,246,0.0,1.0,96,0.00,,---,0.00,VWS V14.01,2013-07-02 13:48:00,
2013-07-02 06:53:00,56.9,55.5,29.84,WSW,246,0.0,1.0,95,0.00,,---,0.00,VWS V14.01,2013-07-02 13:53:00,
2013-07-02 06:58:00,56.9,55.8,29.84,WSW,246,0.0,1.0,96,0.00,,---,0.00,VWS V14.01,2013-07-02 13:58:00,
2013-07-02 07:03:00,57.0,55.9,29.86,WSW,246,2.0,2.0,96,0.00,,---,0.00,VWS V14.01,2013-07-02 14:03:00,
2013-07-02 07:08:00,57.0,55.9,29.86,WSW,246,0.0,2.0,96,0.00,,---,0.00,VWS V14.01,2013-07-02 14:08:00,
2013-07-02 07:13:00,57.0,55.9,29.86,WSW,246,0.0,2.0,96,0.00,,---,0.00,VWS V14.01,2013-07-02 14:13:00,
2013-07-02 07:18:00,57.0,55.9,29.86,WSW,246,0.0,4.0,96,0.00,,---,0.00,VWS V14.01,2013-07-02 14:18:00,
2013-07-02 07:23:00,57.0,55.9,29.86,WSW,246,0.0,4.0,96,0.00,,---,0.00,VWS V14.01,2013-07-02 14:23:00,
2013-07-02 07:28:00,57.2,56.1,29.86,WSW,246,0.0,4.0,96,0.00,,---,0.00,VWS V14.01,2013-07-02 14:28:00,
2013-07-02 07:33:00,57.5,56.4,29.86,WSW,246,0.0,4.0,96,0.00,,---,0.00,VWS V14.01,2013-07-02 14:33:00,
2013-07-02 07:39:00,57.8,56.7,29.86,WSW,246,2.0,2.0,96,0.00,,---,0.00,VWS V14.01,2013-07-02 14:39:00,
2013-07-02 07:44:00,58.0,56.6,29.86,WSW,246,0.0,3.0,95,0.00,,---,0.00,VWS V14.01,2013-07-02 14:44:00,
2013-07-02 07:49:00,58.3,56.9,29.87,West,262,1.0,3.0,95,0.00,,---,0.00,VWS V14.01,2013-07-02 14:49:00,
2013-07-02 07:54:00,58.9,57.2,29.87,West,266,0.0,3.0,94,0.00,,---,0.00,VWS V14.01,2013-07-02 14:54:00,
2013-07-02 07:59:00,59.6,57.6,29.87,West,266,0.0,3.0,93,0.00,,---,0.00,VWS V14.01,2013-07-02 14:59:00,
2013-07-02 08:04:00,59.9,57.3,29.88,West,273,4.0,4.0,91,0.00,,---,0.00,VWS V14.01,2013-07-02 15:04:00,
2013-07-02 08:09:00,60.1,57.2,29.88,WSW,242,3.0,4.0,90,0.00,,---,0.00,VWS V14.01,2013-07-02 15:09:00,
2013-07-02 08:14:00,60.2,57.0,29.88,West,276,0.0,5.0,89,0.00,,---,0.00,VWS V14.01,2013-07-02 15:14:00,
2013-07-02 08:19:00,60.5,57.2,29.89,West,271,0.0,5.0,89,0.00,,---,0.00,VWS V14.01,2013-07-02 15:19:00,
2013-07-02 08:24:00,60.9,57.3,29.89,West,266,0.0,5.0,88,0.00,,---,0.00,VWS V14.01,2013-07-02 15:24:00,
2013-07-02 08:29:00,61.0,57.4,29.89,NW,317,0.0,5.0,88,0.00,,---,0.00,VWS V14.01,2013-07-02 15:29:00,
2013-07-02 08:34:00,61.3,57.4,29.89,NW,319,0.0,5.0,87,0.00,,---,0.00,VWS V14.01,2013-07-02 15:34:00,
2013-07-02 08:39:00,61.5,57.3,29.89,North,360,0.0,3.0,86,0.00,,---,0.00,VWS V14.01,2013-07-02 15:39:00,
2013-07-02 08:44:00,61.8,57.6,29.89,NNW,334,0.0,3.0,86,0.00,,---,0.00,VWS V14.01,2013-07-02 15:44:00,
2013-07-02 08:49:00,62.3,57.7,29.88,West,267,0.0,4.0,85,0.00,,---,0.00,VWS V14.01,2013-07-02 15:49:00,
2013-07-02 08:54:00,63.1,57.9,29.88,West,267,0.0,4.0,83,0.00,,---,0.00,VWS V14.01,2013-07-02 15:54:00,
2013-07-02 08:59:00,63.5,57.9,29.88,West,259,6.0,6.0,82,0.00,,---,0.00,VWS V14.01,2013-07-02 15:59:00,
2013-07-02 09:04:00,63.9,58.3,29.89,SW,233,3.0,6.0,82,0.00,,---,0.00,VWS V14.01,2013-07-02 16:04:00,
2013-07-02 09:09:00,64.5,58.2,29.89,West,270,0.0,5.0,80,0.00,,---,0.00,VWS V14.01,2013-07-02 16:09:00,
2013-07-02 09:14:00,65.5,58.5,29.89,SW,228,2.0,5.0,78,0.00,,---,0.00,VWS V14.01,2013-07-02 16:14:00,
2013-07-02 09:19:00,66.4,58.6,29.89,West,276,0.0,5.0,76,0.00,,---,0.00,VWS V14.01,2013-07-02 16:19:00,
2013-07-02 09:24:00,67.3,58.7,29.89,West,266,0.0,5.0,74,0.00,,---,0.00,VWS V14.01,2013-07-02 16:24:00,
2013-07-02 09:29:00,67.9,59.3,29.89,West,266,0.0,5.0,74,0.00,,---,0.00,VWS V14.01,2013-07-02 16:29:00,
2013-07-02 09:34:00,68.9,59.5,29.89,NW,309,0.0,0.0,72,0.00,,---,0.00,VWS V14.01,2013-07-02 16:34:00,
2013-07-02 09:39:00,69.9,59.3,29.89,WSW,258,0.0,1.0,69,0.00,,---,0.00,VWS V14.01,2013-07-02 16:39:00,
2013-07-02 09:44:00,70.6,59.5,29.89,WSW,257,0.0,4.0,68,0.00,,---,0.00,VWS V14.01,2013-07-02 16:44:00,
2013-07-02 09:49:00,71.5,60.0,29.87,WSW,257,0.0,4.0,67,0.00,,---,0.00,VWS V14.01,2013-07-02 16:49:00,
2013-07-02 09:54:00,72.1,60.5,29.87,WSW,257,0.0,4.0,67,0.00,,---,0.00,VWS V14.01,2013-07-02 16:54:00,
2013-07-02 09:59:00,72.8,59.5,29.87,West,261,0.0,4.0,63,0.00,,---,0.00,VWS V14.01,2013-07-02 16:59:00,
2013-07-02 10:05:00,73.2,60.3,29.88,WNW,294,0.0,0.0,64,0.00,,---,0.00,VWS V14.01,2013-07-02 17:05:00,
2013-07-02 10:10:00,73.7,59.9,29.88,WSW,254,0.0,1.0,62,0.00,,---,0.00,VWS V14.01,2013-07-02 17:10:00,
2013-07-02 10:15:00,73.7,59.9,29.88,WNW,286,0.0,5.0,62,0.00,,---,0.00,VWS V14.01,2013-07-02 17:15:00,
2013-07-02 10:19:00,74.4,60.5,29.88,West,261,0.0,5.0,62,0.00,,---,0.00,VWS V14.01,2013-07-02 17:19:00,
2013-07-02 10:25:00,75.3,60.5,29.88,West,259,0.0,5.0,60,0.00,,---,0.00,VWS V14.01,2013-07-02 17:25:00,
2013-07-02 10:30:00,75.8,61.4,29.88,West,259,0.0,5.0,61,0.00,,---,0.00,VWS V14.01,2013-07-02 17:30:00,
2013-07-02 10:35:00,76.3,61.4,29.88,NW,306,0.0,0.0,60,0.00,,---,0.00,VWS V14.01,2013-07-02 17:35:00,
2013-07-02 10:40:00,77.0,62.1,29.88,WNW,290,2.0,4.0,60,0.00,,---,0.00,VWS V14.01,2013-07-02 17:40:00,
2013-07-02 10:45:00,77.4,62.0,29.88,West,273,0.0,4.0,59,0.00,,---,0.00,VWS V14.01,2013-07-02 17:45:00,
2013-07-02 10:50:00,77.6,62.2,29.88,WNW,290,2.0,6.0,59,0.00,,---,0.00,VWS V14.01,2013-07-02 17:50:00,
2013-07-02 10:55:00,77.9,62.0,29.88,WNW,298,6.0,7.0,58,0.00,,---,0.00,VWS V14.01,2013-07-02 17:55:00,
2013-07-02 11:00:00,78.1,62.1,29.88,NW,318,0.0,7.0,58,0.00,,---,0.00,VWS V14.01,2013-07-02 18:00:00,
2013-07-02 11:05:00,77.9,61.5,29.88,West,277,0.0,3.0,57,0.00,,---,0.00,VWS V14.01,2013-07-02 18:05:00,
2013-07-02 11:10:00,77.7,61.8,29.88,West,278,4.0,8.0,58,0.00,,---,0.00,VWS V14.01,2013-07-02 18:10:00,
2013-07-02 11:15:00,77.6,61.7,29.88,NW,306,0.0,8.0,58,0.00,,---,0.00,VWS V14.01,2013-07-02 18:15:00,
2013-07-02 11:20:00,77.7,61.8,29.88,West,265,0.0,8.0,58,0.00,,---,0.00,VWS V14.01,2013-07-02 18:20:00,
2013-07-02 11:25:00,77.9,61.5,29.88,WSW,250,0.0,8.0,57,0.00,,---,0.00,VWS V14.01,2013-07-02 18:25:00,
2013-07-02 11:30:00,78.5,61.5,29.88,West,275,0.0,8.0,56,0.00,,---,0.00,VWS V14.01,2013-07-02 18:30:00,
2013-07-02 11:35:00,78.8,61.8,29.89,WNW,288,0.0,3.0,56,0.00,,---,0.00,VWS V14.01,2013-07-02 18:35:00,
2013-07-02 11:40:00,79.6,61.5,29.89,WNW,295,2.0,3.0,54,0.00,,---,0.00,VWS V14.01,2013-07-02 18:40:00,
2013-07-02 11:45:00,79.9,61.3,29.89,NNW,332,0.0,5.0,53,0.00,,---,0.00,VWS V14.01,2013-07-02 18:45:00,
2013-07-02 11:50:00,80.5,61.8,29.89,WNW,284,6.0,6.0,53,0.00,,---,0.00,VWS V14.01,2013-07-02 18:50:00,
2013-07-02 11:55:00,80.5,61.8,29.89,SW,234,3.0,8.0,53,0.00,,---,0.00,VWS V14.01,2013-07-02 18:55:00,
2013-07-02 12:00:00,80.9,61.1,29.89,NNW,329,0.0,8.0,51,0.00,,---,0.00,VWS V14.01,2013-07-02 19:00:00,
2013-07-02 12:05:00,80.3,61.1,29.89,NW,323,0.0,4.0,52,0.00,,---,0.00,VWS V14.01,2013-07-02 19:05:00,
2013-07-02 12:10:00,80.5,61.3,29.89,WNW,290,5.0,5.0,52,0.00,,---,0.00,VWS V14.01,2013-07-02 19:10:00,
2013-07-02 12:15:00,80.5,61.3,29.89,NNW,338,3.0,7.0,52,0.00,,---,0.00,VWS V14.01,2013-07-02 19:15:00,
2013-07-02 12:20:00,80.1,61.4,29.89,West,275,1.0,7.0,53,0.00,,---,0.00,VWS V14.01,2013-07-02 19:20:00,
2013-07-02 12:25:00,80.5,61.3,29.89,SW,226,0.0,7.0,52,0.00,,---,0.00,VWS V14.01,2013-07-02 19:25:00,
2013-07-02 12:30:00,80.7,60.9,29.89,West,279,2.0,7.0,51,0.00,,---,0.00,VWS V14.01,2013-07-02 19:30:00,
2013-07-02 12:35:00,80.7,60.9,29.89,WNW,297,5.0,7.0,51,0.00,,---,0.00,VWS V14.01,2013-07-02 19:35:00,
2013-07-02 12:40:00,79.9,60.7,29.89,WNW,288,3.0,8.0,52,0.00,,---,0.00,VWS V14.01,2013-07-02 19:40:00,
2013-07-02 12:45:00,79.9,60.7,29.89,SW,225,5.0,8.0,52,0.00,,---,0.00,VWS V14.01,2013-07-02 19:45:00,
2013-07-02 12:50:00,80.5,60.7,29.89,WNW,290,0.0,9.0,51,0.00,,---,0.00,VWS V14.01,2013-07-02 19:50:00,
2013-07-02 12:55:00,80.9,58.8,29.89,WSW,249,3.0,9.0,47,0.00,,---,0.00,VWS V14.01,2013-07-02 19:55:00,
2013-07-02 13:00:00,81.1,59.6,29.89,West,267,0.0,9.0,48,0.00,,---,0.00,VWS V14.01,2013-07-02 20:00:00,
2013-07-02 13:05:00,81.8,59.6,29.89,West,266,0.0,4.0,47,0.00,,---,0.00,VWS V14.01,2013-07-02 20:05:00,
2013-07-02 13:10:00,82.8,59.9,29.89,NNW,339,0.0,7.0,46,0.00,,---,0.00,VWS V14.01,2013-07-02 20:10:00,
2013-07-02 13:15:00,83.6,60.0,29.89,WSW,247,1.0,9.0,45,0.00,,---,0.00,VWS V14.01,2013-07-02 20:15:00,
2013-07-02 13:20:00,83.6,60.7,29.89,West,281,1.0,9.0,46,0.00,,---,0.00,VWS V14.01,2013-07-02 20:20:00,
2013-07-02 13:25:00,83.2,60.3,29.89,West,269,4.0,11.0,46,0.00,,---,0.00,VWS V14.01,2013-07-02 20:25:00,
2013-07-02 13:30:00,82.0,59.8,29.89,WNW,282,4.0,12.0,47,0.00,,---,0.00,VWS V14.01,2013-07-02 20:30:00,
2013-07-02 13:35:00,81.6,59.4,29.89,WNW,286,7.0,9.0,47,0.00,,---,0.00,VWS V14.01,2013-07-02 20:35:00,
2013-07-02 13:40:00,80.9,60.0,29.89,South,190,4.0,10.0,49,0.00,,---,0.00,VWS V14.01,2013-07-02 20:40:00,
2013-07-02 13:45:00,80.3,60.0,29.89,WSW,257,2.0,10.0,50,0.00,,---,0.00,VWS V14.01,2013-07-02 20:45:00,
2013-07-02 13:50:00,80.7,59.8,29.90,WNW,288,3.0,10.0,49,0.00,,---,0.00,VWS V14.01,2013-07-02 20:50:00,
2013-07-02 13:55:00,80.9,60.5,29.90,West,263,4.0,10.0,50,0.00,,---,0.00,VWS V14.01,2013-07-02 20:55:00,
2013-07-02 14:00:00,80.7,59.8,29.90,WSW,244,7.0,10.0,49,0.00,,---,0.00,VWS V14.01,2013-07-02 21:00:00,
2013-07-02 14:05:00,80.3,60.0,29.90,WSW,255,0.0,7.0,50,0.00,,---,0.00,VWS V14.01,2013-07-02 21:05:00,
2013-07-02 14:10:00,79.8,60.1,29.90,West,273,2.0,11.0,51,0.00,,---,0.00,VWS V14.01,2013-07-02 21:10:00,
2013-07-02 14:15:00,79.9,59.6,29.90,South,183,4.0,11.0,50,0.00,,---,0.00,VWS V14.01,2013-07-02 21:15:00,
2013-07-02 14:20:00,79.4,59.7,29.91,West,269,9.0,11.0,51,0.00,,---,0.00,VWS V14.01,2013-07-02 21:20:00,
2013-07-02 14:25:00,77.7,59.8,29.91,WNW,283,6.0,11.0,54,0.00,,---,0.00,VWS V14.01,2013-07-02 21:25:00,
2013-07-02 14:30:00,76.3,60.0,29.91,SW,218,4.0,11.0,57,0.00,,---,0.00,VWS V14.01,2013-07-02 21:30:00,
2013-07-02 14:36:00,76.0,59.7,29.91,WSW,250,4.0,11.0,57,0.00,,---,0.00,VWS V14.01,2013-07-02 21:36:00,
2013-07-02 14:41:00,76.0,59.2,29.91,WSW,248,10.0,11.0,56,0.00,,---,0.00,VWS V14.01,2013-07-02 21:41:00,
2013-07-02 14:46:00,76.7,59.8,29.91,NW,312,3.0,11.0,56,0.00,,---,0.00,VWS V14.01,2013-07-02 21:46:00,
2013-07-02 14:51:00,77.4,60.5,29.91,WNW,283,7.0,11.0,56,0.00,,---,0.00,VWS V14.01,2013-07-02 21:51:00,
2013-07-02 14:56:00,78.3,60.3,29.91,WSW,250,4.0,11.0,54,0.00,,---,0.00,VWS V14.01,2013-07-02 21:56:00,
2013-07-02 15:01:00,78.5,60.5,29.91,West,262,2.0,11.0,54,0.00,,---,0.00,VWS V14.01,2013-07-02 22:01:00,
2013-07-02 15:06:00,78.6,60.1,29.91,WSW,250,5.0,10.0,53,0.00,,---,0.00,VWS V14.01,2013-07-02 22:06:00,
2013-07-02 15:11:00,77.9,59.4,29.91,West,261,8.0,12.0,53,0.00,,---,0.00,VWS V14.01,2013-07-02 22:11:00,
2013-07-02 15:16:00,77.0,60.1,29.91,WSW,257,5.0,12.0,56,0.00,,---,0.00,VWS V14.01,2013-07-02 22:16:00,
2013-07-02 15:21:00,77.4,60.0,29.91,WNW,290,4.0,12.0,55,0.00,,---,0.00,VWS V14.01,2013-07-02 22:21:00,
2013-07-02 15:26:00,77.2,59.8,29.91,WNW,292,5.0,14.0,55,0.00,,---,0.00,VWS V14.01,2013-07-02 22:26:00,
2013-07-02 15:31:00,77.0,59.6,29.91,SSW,202,7.0,14.0,55,0.00,,---,0.00,VWS V14.01,2013-07-02 22:31:00,
2013-07-02 15:36:00,76.8,58.9,29.91,West,259,9.0,14.0,54,0.00,,---,0.00,VWS V14.01,2013-07-02 22:36:00,
2013-07-02 15:41:00,76.3,59.5,29.91,West,278,7.0,14.0,56,0.00,,---,0.00,VWS V14.01,2013-07-02 22:41:00,
2013-07-02 15:46:00,75.4,59.6,29.91,NW,306,5.0,14.0,58,0.00,,---,0.00,VWS V14.01,2013-07-02 22:46:00,
2013-07-02 15:51:00,74.6,58.4,29.91,WSW,241,6.0,14.0,57,0.00,,---,0.00,VWS V14.01,2013-07-02 22:51:00,
2013-07-02 15:56:00,74.2,59.0,29.91,West,261,6.0,14.0,59,0.00,,---,0.00,VWS V14.01,2013-07-02 22:56:00,
2013-07-02 16:01:00,74.2,59.4,29.91,WSW,237,7.0,14.0,60,0.00,,---,0.00,VWS V14.01,2013-07-02 23:01:00,
2013-07-02 16:06:00,75.1,59.3,29.91,NNW,330,5.0,10.0,58,0.00,,---,0.00,VWS V14.01,2013-07-02 23:06:00,
2013-07-02 16:11:00,75.3,59.0,29.91,WSW,253,7.0,13.0,57,0.00,,---,0.00,VWS V14.01,2013-07-02 23:11:00,
2013-07-02 16:16:00,74.4,59.2,29.91,WSW,257,9.0,13.0,59,0.00,,---,0.00,VWS V14.01,2013-07-02 23:16:00,
2013-07-02 16:21:00,73.3,58.6,29.91,West,259,6.0,13.0,60,0.00,,---,0.00,VWS V14.01,2013-07-02 23:21:00,
2013-07-02 16:26:00,72.3,58.6,29.91,WSW,248,7.0,13.0,62,0.00,,---,0.00,VWS V14.01,2013-07-02 23:26:00,
2013-07-02 16:29:00,71.8,58.5,29.91,SW,223,8.0,13.0,63,0.00,,---,0.00,VWS V14.01,2013-07-02 23:29:00,
2013-07-02 16:34:00,71.3,58.5,29.91,WSW,245,12.0,16.0,64,0.00,,---,0.00,VWS V14.01,2013-07-02 23:34:00,
2013-07-02 16:39:00,71.3,58.5,29.91,West,271,8.0,12.0,64,0.00,,---,0.00,VWS V14.01,2013-07-02 23:39:00,
2013-07-02 16:44:00,71.3,58.9,29.91,WSW,248,4.0,12.0,65,0.00,,---,0.00,VWS V14.01,2013-07-02 23:44:00,
2013-07-02 16:49:00,71.3,58.5,29.91,SSW,207,3.0,15.0,64,0.00,,---,0.00,VWS V14.01,2013-07-02 23:49:00,
2013-07-02 16:54:00,71.6,58.3,29.91,West,278,4.0,15.0,63,0.00,,---,0.00,VWS V14.01,2013-07-02 23:54:00,
2013-07-02 16:59:00,71.6,58.8,29.91,West,274,13.0,15.0,64,0.00,,---,0.00,VWS V14.01,2013-07-02 23:59:00,
2013-07-02 17:01:00,71.5,58.7,29.91,SW,215,9.0,15.0,64,0.00,,---,0.00,VWS V14.01,2013-07-03 00:01:00,
2013-07-02 17:06:00,70.9,58.6,29.92,West,271,6.0,13.0,65,0.00,,---,0.00,VWS V14.01,2013-07-03 00:06:00,
2013-07-02 17:11:00,70.8,58.5,29.92,WSW,244,7.0,15.0,65,0.00,,---,0.00,VWS V14.01,2013-07-03 00:11:00,
2013-07-02 17:16:00,70.3,58.4,29.92,West,263,8.0,15.0,66,0.00,,---,0.00,VWS V14.01,2013-07-03 00:16:00,
2013-07-02 17:21:00,69.9,58.5,29.92,SW,231,9.0,15.0,67,0.00,,---,0.00,VWS V14.01,2013-07-03 00:21:00,
2013-07-02 17:23:00,70.1,58.2,29.92,WSW,237,9.0,15.0,66,0.00,,---,0.00,VWS V14.01,2013-07-03 00:23:00,
2013-07-02 17:25:00,70.3,58.4,29.92,West,273,3.0,15.0,66,0.00,,---,0.00,VWS V14.01,2013-07-03 00:25:00,
2013-07-02 17:28:00,70.6,58.7,29.92,WSW,238,3.0,15.0,66,0.00,,---,0.00,VWS V14.01,2013-07-03 00:28:00,
2013-07-02 17:33:00,71.5,58.7,29.92,West,267,6.0,15.0,64,0.00,,---,0.00,VWS V14.01,2013-07-03 00:33:00,
2013-07-02 17:38:00,71.6,58.8,29.91,WSW,255,6.0,13.0,64,0.00,,---,0.00,VWS V14.01,2013-07-03 00:38:00,
2013-07-02 17:43:00,71.8,58.5,29.91,West,271,4.0,13.0,63,0.00,,---,0.00,VWS V14.01,2013-07-03 00:43:00,
2013-07-02 17:48:00,71.5,58.7,29.91,WNW,299,5.0,16.0,64,0.00,,---,0.00,VWS V14.01,2013-07-03 00:48:00,
2013-07-02 17:53:00,70.9,58.6,29.90,WNW,294,5.0,16.0,65,0.00,,---,0.00,VWS V14.01,2013-07-03 00:53:00,
2013-07-02 17:58:00,70.8,58.5,29.90,WSW,256,7.0,16.0,65,0.00,,---,0.00,VWS V14.01,2013-07-03 00:58:00,
2013-07-02 18:00:00,70.8,58.5,29.90,West,261,8.0,16.0,65,0.00,,---,0.00,VWS V14.01,2013-07-03 01:00:00,
2013-07-02 18:03:00,70.4,58.5,29.90,SW,227,8.0,16.0,66,0.00,,---,0.00,VWS V14.01,2013-07-03 01:03:00,
2013-07-02 18:08:00,70.4,58.5,29.91,WNW,293,9.0,14.0,66,0.00,,---,0.00,VWS V14.01,2013-07-03 01:08:00,
2013-07-02 18:09:00,70.4,58.1,29.91,SW,227,5.0,14.0,65,0.00,,---,0.00,VWS V14.01,2013-07-03 01:09:00,
2013-07-02 18:14:00,70.3,58.0,29.91,WSW,250,8.0,14.0,65,0.00,,---,0.00,VWS V14.01,2013-07-03 01:14:00,
2013-07-02 18:19:00,70.3,58.4,29.91,WSW,252,3.0,14.0,66,0.00,,---,0.00,VWS V14.01,2013-07-03 01:19:00,
2013-07-02 18:24:00,70.1,58.2,29.91,West,264,9.0,14.0,66,0.00,,---,0.00,VWS V14.01,2013-07-03 01:24:00,
2013-07-02 18:27:00,69.8,58.4,29.91,WSW,247,8.0,14.0,67,0.00,,---,0.00,VWS V14.01,2013-07-03 01:27:00,
2013-07-02 18:32:00,69.3,58.3,29.91,SW,215,3.0,14.0,68,0.00,,---,0.00,VWS V14.01,2013-07-03 01:32:00,
2013-07-02 18:37:00,69.1,58.1,29.91,SW,234,3.0,11.0,68,0.00,,---,0.00,VWS V14.01,2013-07-03 01:37:00,
2013-07-02 18:42:00,68.9,57.9,29.91,WSW,257,6.0,12.0,68,0.00,,---,0.00,VWS V14.01,2013-07-03 01:42:00,
2013-07-02 18:47:00,68.4,57.8,29.91,SW,234,4.0,13.0,69,0.00,,---,0.00,VWS V14.01,2013-07-03 01:47:00,
2013-07-02 18:49:00,68.3,57.8,29.91,WSW,250,6.0,13.0,69,0.00,,---,0.00,VWS V14.01,2013-07-03 01:49:00,
2013-07-02 18:50:00,68.3,57.8,29.91,SW,221,3.0,13.0,69,0.00,,---,0.00,VWS V14.01,2013-07-03 01:50:00,
2013-07-02 18:55:00,68.1,58.0,29.91,SSW,198,2.0,14.0,70,0.00,,---,0.00,VWS V14.01,2013-07-03 01:55:00,
2013-07-02 19:00:00,67.6,57.9,29.91,SW,215,5.0,14.0,71,0.00,,---,0.00,VWS V14.01,2013-07-03 02:00:00,
2013-07-02 19:05:00,67.3,57.6,29.90,WSW,244,6.0,7.0,71,0.00,,---,0.00,VWS V14.01,2013-07-03 02:05:00,
2013-07-02 19:10:00,66.9,57.6,29.90,WSW,252,4.0,10.0,72,0.00,,---,0.00,VWS V14.01,2013-07-03 02:10:00,
2013-07-02 19:15:00,66.9,57.6,29.90,WSW,255,4.0,10.0,72,0.00,,---,0.00,VWS V14.01,2013-07-03 02:15:00,
2013-07-02 19:20:00,66.6,57.7,29.90,South,191,4.0,10.0,73,0.00,,---,0.00,VWS V14.01,2013-07-03 02:20:00,
2013-07-02 19:25:00,66.3,57.8,29.90,WSW,241,7.0,10.0,74,0.00,,---,0.00,VWS V14.01,2013-07-03 02:25:00,
2013-07-02 19:30:00,66.1,57.6,29.90,WNW,284,0.0,10.0,74,0.00,,---,0.00,VWS V14.01,2013-07-03 02:30:00,
2013-07-02 19:32:00,66.1,57.6,29.90,West,265,0.0,10.0,74,0.00,,---,0.00,VWS V14.01,2013-07-03 02:32:00,
2013-07-02 19:37:00,66.1,57.6,29.89,WSW,254,0.0,4.0,74,0.00,,---,0.00,VWS V14.01,2013-07-03 02:37:00,
2013-07-02 19:42:00,65.2,57.8,29.89,WSW,250,2.0,7.0,77,0.00,,---,0.00,VWS V14.01,2013-07-03 02:42:00,
2013-07-02 19:46:00,64.8,57.8,29.89,WSW,254,0.0,7.0,78,0.00,,---,0.00,VWS V14.01,2013-07-03 02:46:00,
2013-07-02 19:51:00,64.5,57.5,29.90,WSW,254,0.0,8.0,78,0.00,,---,0.00,VWS V14.01,2013-07-03 02:51:00,
2013-07-02 19:56:00,64.2,57.2,29.90,SW,220,2.0,8.0,78,0.00,,---,0.00,VWS V14.01,2013-07-03 02:56:00,
2013-07-02 20:01:00,63.7,57.4,29.90,West,259,4.0,8.0,80,0.00,,---,0.00,VWS V14.01,2013-07-03 03:01:00,
2013-07-02 20:02:00,63.7,57.4,29.90,SW,217,2.0,8.0,80,0.00,,---,0.00,VWS V14.01,2013-07-03 03:02:00,
2013-07-02 20:07:00,63.2,56.9,29.90,WSW,255,0.0,5.0,80,0.00,,---,0.00,VWS V14.01,2013-07-03 03:07:00,
2013-07-02 20:12:00,63.1,57.2,29.90,WSW,252,0.0,5.0,81,0.00,,---,0.00,VWS V14.01,2013-07-03 03:12:00,
2013-07-02 20:18:00,62.9,57.0,29.90,SSW,207,0.0,5.0,81,0.00,,---,0.00,VWS V14.01,2013-07-03 03:18:00,
2013-07-02 20:21:00,62.7,57.1,29.90,SW,223,1.0,5.0,82,0.00,,---,0.00,VWS V14.01,2013-07-03 03:21:00,
2013-07-02 20:26:00,62.4,57.2,29.90,SW,231,0.0,5.0,83,0.00,,---,0.00,VWS V14.01,2013-07-03 03:26:00,
2013-07-02 20:31:00,62.1,56.9,29.90,SW,231,0.0,5.0,83,0.00,,---,0.00,VWS V14.01,2013-07-03 03:31:00,
2013-07-02 20:35:00,62.0,56.8,29.90,WSW,256,3.0,4.0,83,0.00,,---,0.00,VWS V14.01,2013-07-03 03:35:00,
2013-07-02 20:39:00,61.8,56.9,29.90,WSW,252,0.0,4.0,84,0.00,,---,0.00,VWS V14.01,2013-07-03 03:39:00,
2013-07-02 20:45:00,61.6,56.7,29.90,West,266,0.0,4.0,84,0.00,,---,0.00,VWS V14.01,2013-07-03 03:45:00,
2013-07-02 20:49:00,61.5,57.0,29.90,West,266,0.0,4.0,85,0.00,,---,0.00,VWS V14.01,2013-07-03 03:49:00,
2013-07-02 20:54:00,61.3,56.8,29.90,West,266,0.0,4.0,85,0.00,,---,0.00,VWS V14.01,2013-07-03 03:54:00,
2013-07-02 20:59:00,61.2,56.7,29.90,West,266,0.0,4.0,85,0.00,,---,0.00,VWS V14.01,2013-07-03 03:59:00,
2013-07-02 21:00:00,61.2,56.7,29.90,West,266,0.0,4.0,85,0.00,,---,0.00,VWS V14.01,2013-07-03 04:00:00,
2013-07-02 21:01:00,61.2,56.7,29.90,West,266,0.0,4.0,85,0.00,,---,0.00,VWS V14.01,2013-07-03 04:01:00,
2013-07-02 21:02:00,61.0,56.8,29.90,West,266,0.0,4.0,86,0.00,,---,0.00,VWS V14.01,2013-07-03 04:02:00,
2013-07-02 21:03:00,61.0,56.8,29.90,West,266,0.0,4.0,86,0.00,,---,0.00,VWS V14.01,2013-07-03 04:03:00,
2013-07-02 21:04:00,61.0,56.8,29.91,West,266,0.0,0.0,86,0.00,,---,0.00,VWS V14.01,2013-07-03 04:04:00,
2013-07-02 21:09:00,60.7,56.5,29.91,West,266,0.0,4.0,86,0.00,,---,0.00,VWS V14.01,2013-07-03 04:09:00,
2013-07-02 21:14:00,60.5,56.3,29.91,WNW,287,2.0,4.0,86,0.00,,---,0.00,VWS V14.01,2013-07-03 04:14:00,
2013-07-02 21:19:00,60.4,56.5,29.92,WSW,256,0.0,5.0,87,0.00,,---,0.00,VWS V14.01,2013-07-03 04:19:00,
2013-07-02 21:24:00,60.2,56.3,29.92,WSW,256,0.0,5.0,87,0.00,,---,0.00,VWS V14.01,2013-07-03 04:24:00,
2013-07-02 21:29:00,59.9,56.3,29.92,WSW,257,0.0,5.0,88,0.00,,---,0.00,VWS V14.01,2013-07-03 04:29:00,
2013-07-02 21:31:00,59.9,56.3,29.92,WSW,257,0.0,5.0,88,0.00,,---,0.00,VWS V14.01,2013-07-03 04:31:00,
2013-07-02 21:32:00,59.9,56.3,29.92,WSW,257,2.0,5.0,88,0.00,,---,0.00,VWS V14.01,2013-07-03 04:32:00,
2013-07-02 21:37:00,59.8,56.6,29.92,WSW,257,0.0,2.0,89,0.00,,---,0.00,VWS V14.01,2013-07-03 04:37:00,
2013-07-02 21:42:00,59.8,56.6,29.92,WSW,257,0.0,2.0,89,0.00,,---,0.00,VWS V14.01,2013-07-03 04:42:00,
2013-07-02 21:45:00,59.8,56.6,29.92,WSW,257,0.0,3.0,89,0.00,,---,0.00,VWS V14.01,2013-07-03 04:45:00,
2013-07-02 21:46:00,59.8,56.6,29.92,WSW,257,0.0,3.0,89,0.00,,---,0.00,VWS V14.01,2013-07-03 04:46:00,
2013-07-02 21:51:00,59.8,56.6,29.93,WSW,257,0.0,3.0,89,0.00,,---,0.00,VWS V14.01,2013-07-03 04:51:00,
2013-07-02 21:53:00,59.8,56.9,29.93,WSW,257,0.0,3.0,90,0.00,,---,0.00,VWS V14.01,2013-07-03 04:53:00,
2013-07-02 21:58:00,59.8,56.9,29.93,WSW,257,0.0,3.0,90,0.00,,---,0.00,VWS V14.01,2013-07-03 04:58:00,
2013-07-02 22:03:00,59.8,56.9,29.93,WSW,257,0.0,3.0,90,0.00,,---,0.00,VWS V14.01,2013-07-03 05:03:00,
2013-07-02 22:07:00,59.8,56.9,29.93,WSW,257,0.0,0.0,90,0.00,,---,0.00,VWS V14.01,2013-07-03 05:07:00,
2013-07-02 22:12:00,59.8,56.9,29.93,WSW,257,0.0,0.0,90,0.00,,---,0.00,VWS V14.01,2013-07-03 05:12:00,
2013-07-02 22:17:00,59.9,57.0,29.93,WSW,257,0.0,0.0,90,0.00,,---,0.00,VWS V14.01,2013-07-03 05:17:00,
2013-07-02 22:19:00,59.9,57.0,29.93,WSW,257,0.0,0.0,90,0.00,,---,0.00,VWS V14.01,2013-07-03 05:19:00,
2013-07-02 22:24:00,59.8,56.9,29.93,WSW,257,0.0,2.0,90,0.00,,---,0.00,VWS V14.01,2013-07-03 05:24:00,
2013-07-02 22:30:00,59.6,56.7,29.93,WSW,257,0.0,2.0,90,0.00,,---,0.00,VWS V14.01,2013-07-03 05:30:00,
2013-07-02 22:35:00,59.5,56.9,29.94,WSW,257,2.0,2.0,91,0.00,,---,0.00,VWS V14.01,2013-07-03 05:35:00,
2013-07-02 22:40:00,59.5,56.9,29.94,WSW,257,0.0,3.0,91,0.00,,---,0.00,VWS V14.01,2013-07-03 05:40:00,
2013-07-02 22:45:00,59.3,56.7,29.94,WSW,257,0.0,4.0,91,0.00,,---,0.00,VWS V14.01,2013-07-03 05:45:00,
2013-07-02 22:50:00,59.2,56.6,29.93,West,261,1.0,4.0,91,0.00,,---,0.00,VWS V14.01,2013-07-03 05:50:00,
2013-07-02 22:55:00,59.0,56.7,29.93,West,261,0.0,4.0,92,0.00,,---,0.00,VWS V14.01,2013-07-03 05:55:00,
2013-07-02 22:57:00,59.0,56.7,29.93,West,261,0.0,4.0,92,0.00,,---,0.00,VWS V14.01,2013-07-03 05:57:00,
2013-07-02 22:58:00,59.0,56.7,29.93,West,261,0.0,4.0,92,0.00,,---,0.00,VWS V14.01,2013-07-03 05:58:00,
2013-07-02 23:02:00,59.0,56.7,29.93,West,261,0.0,4.0,92,0.00,,---,0.00,VWS V14.01,2013-07-03 06:02:00,
2013-07-02 23:07:00,59.0,56.7,29.93,West,261,0.0,4.0,92,0.00,,---,0.00,VWS V14.01,2013-07-03 06:07:00,
2013-07-02 23:12:00,59.0,57.0,29.93,West,261,0.0,-999.0,92,-99.99,,,0.00,weatherlink.com 1.10,2013-07-03 06:12:00,
2013-07-02 23:13:00,59.0,56.7,29.93,West,261,0.0,4.0,92,0.00,,---,0.00,VWS V14.01,2013-07-03 06:13:00,
2013-07-02 23:17:00,58.9,56.6,29.93,West,261,2.0,4.0,92,0.00,,---,0.00,VWS V14.01,2013-07-03 06:17:00,
2013-07-02 23:22:00,58.7,56.4,29.92,West,261,0.0,4.0,92,0.00,,---,0.00,VWS V14.01,2013-07-03 06:22:00,
2013-07-02 23:24:00,58.7,56.4,29.92,West,261,0.0,4.0,92,0.00,,---,0.00,VWS V14.01,2013-07-03 06:24:00,
2013-07-02 23:26:00,58.7,56.4,29.92,West,261,0.0,4.0,92,0.00,,---,0.00,VWS V14.01,2013-07-03 06:26:00,
2013-07-02 23:31:00,58.7,56.7,29.92,West,262,0.0,4.0,93,0.00,,---,0.00,VWS V14.01,2013-07-03 06:31:00,
2013-07-02 23:32:00,58.7,56.7,29.92,West,262,0.0,4.0,93,0.00,,---,0.00,VWS V14.01,2013-07-03 06:32:00,
2013-07-02 23:37:00,58.6,56.6,29.92,West,262,0.0,0.0,93,0.00,,---,0.00,VWS V14.01,2013-07-03 06:37:00,
2013-07-02 23:42:00,58.6,56.6,29.92,West,262,3.0,3.0,93,0.00,,---,0.00,VWS V14.01,2013-07-03 06:42:00,
2013-07-02 23:43:00,58.6,56.6,29.92,West,262,3.0,3.0,93,0.00,,---,0.00,VWS V14.01,2013-07-03 06:43:00,
2013-07-02 23:48:00,58.4,56.4,29.92,West,262,3.0,3.0,93,0.00,,---,0.00,VWS V14.01,2013-07-03 06:48:00,
2013-07-02 23:53:00,58.6,56.6,29.92,West,262,0.0,3.0,93,0.00,,---,0.00,VWS V14.01,2013-07-03 06:53:00,
2013-07-02 23:56:00,58.6,56.6,29.92,West,262,0.0,3.0,93,0.00,,---,0.00,VWS V14.01,2013-07-03 06:56:00,